Valle Grande, Bolivia
Current Conditions -  °F | °C
As of 7:00 AM on Monday 20 Oct 2014 (Local Time) from SLET Reporting Station
Light Rain Light Rain  
Wind Chill: 73°   Ceiling: 2500
Heat Index: 73°   Visibility: 5mi
Dew Point: 66°   Wind: 5mph
Humidity: 78%   Direction: 220°SW
Pressure: 30.03"   Gusts: NA
Location:  18.49°S, 64.11°W
Report Text: SLET 201100Z 22004KT 8000 -RA BKN025 OVC070 23/19 Q1017
Loading
Personal Weather Stations






























Interactive Weather Map
Tropical Storm Tracking
New forecast layout! Learn more

10-Day Weather Forecast

Advertisements
Track Severe Weather on mobile